createdAt,value
2018-09-11T00:05:40.851Z,99.90
2018-09-11T00:15:42.149Z,99.90
2018-09-11T00:25:43.404Z,99.90
2018-09-11T00:35:44.639Z,99.90
2018-09-11T00:45:45.919Z,99.90
2018-09-11T00:55:47.944Z,99.90
2018-09-11T01:05:49.357Z,99.90
2018-09-11T01:15:50.656Z,99.90
2018-09-11T01:25:51.935Z,99.90
2018-09-11T01:35:53.227Z,99.90
2018-09-11T01:45:55.259Z,99.90
2018-09-11T01:55:56.525Z,99.90
2018-09-11T02:05:57.966Z,99.90
2018-09-11T02:15:59.202Z,99.90
2018-09-11T02:26:00.468Z,99.90
2018-09-11T02:36:01.749Z,99.90
2018-09-11T02:46:03.026Z,99.90
2018-09-11T02:56:04.278Z,99.90
2018-09-11T03:06:05.759Z,99.90
2018-09-11T03:16:07.025Z,99.90
2018-09-11T03:26:08.291Z,99.90
2018-09-11T03:36:10.338Z,99.90
2018-09-11T03:46:11.636Z,99.90
2018-09-11T03:56:13.042Z,99.90
2018-09-11T04:06:14.490Z,99.90
2018-09-11T04:16:16.507Z,99.90
2018-09-11T04:26:17.776Z,99.90
2018-09-11T04:36:19.049Z,99.90
2018-09-11T04:46:20.291Z,99.90
2018-09-11T04:56:22.291Z,99.90
2018-09-11T05:06:23.567Z,99.90
2018-09-11T05:16:24.827Z,99.90
2018-09-11T05:26:26.098Z,99.90
2018-09-11T05:36:28.149Z,99.90
2018-09-11T05:46:29.410Z,99.90
2018-09-11T05:56:31.551Z,99.90
2018-09-11T06:06:32.864Z,99.90
2018-09-11T06:16:34.123Z,99.90
2018-09-11T06:26:36.147Z,99.90
2018-09-11T06:36:37.390Z,99.90
2018-09-11T06:46:38.635Z,99.90
2018-09-11T06:56:39.911Z,99.90
2018-09-11T07:06:41.956Z,92.10
2018-09-11T07:16:43.223Z,92.10
2018-09-11T07:26:45.289Z,86.00
2018-09-11T07:36:46.557Z,85.90
2018-09-11T07:46:48.015Z,81.20
2018-09-11T07:56:49.246Z,78.50
2018-09-11T08:06:50.520Z,75.10
2018-09-11T08:16:52.695Z,72.90
2018-09-11T08:26:53.951Z,72.80
2018-09-11T08:36:55.221Z,65.00
2018-09-11T08:46:57.396Z,50.50
2018-09-11T08:56:58.842Z,50.40
2018-09-11T09:07:00.109Z,43.40
2018-09-11T09:17:01.371Z,38.00
2018-09-11T09:27:02.669Z,33.50
2018-09-11T09:37:04.062Z,30.80
2018-09-11T09:47:05.218Z,31.60
2018-09-11T09:57:07.227Z,32.00
2018-09-11T10:07:09.238Z,33.00
2018-09-11T10:17:11.243Z,37.30
2018-09-11T10:27:12.500Z,37.20
2018-09-11T10:37:13.794Z,38.50
2018-09-11T10:47:15.113Z,36.10
2018-09-11T10:57:16.384Z,40.70
2018-09-11T11:07:18.024Z,41.90
2018-09-11T11:17:19.462Z,44.20
2018-09-11T11:27:20.886Z,44.20
2018-09-11T11:37:26.884Z,44.60
2018-09-11T11:47:28.035Z,42.70
2018-09-11T11:57:29.286Z,38.80
2018-09-11T12:07:30.621Z,37.60
2018-09-11T12:17:31.998Z,39.30
2018-09-11T12:27:33.263Z,40.70
2018-09-11T12:37:34.505Z,39.80
2018-09-11T12:47:36.126Z,41.10
2018-09-11T12:57:37.312Z,45.20
2018-09-11T13:07:38.570Z,43.60
2018-09-11T13:17:39.850Z,42.50
2018-09-11T13:27:41.188Z,41.10
2018-09-11T13:37:42.914Z,41.70
2018-09-11T13:47:44.960Z,41.50
2018-09-11T13:57:46.257Z,41.50
2018-09-11T14:07:48.282Z,43.70
2018-09-11T14:17:49.553Z,43.60
2018-09-11T14:27:50.826Z,46.20
2018-09-11T14:37:52.131Z,46.40
2018-09-11T14:47:53.403Z,47.30
2018-09-11T14:57:54.680Z,46.10
2018-09-11T15:07:56.038Z,49.00
2018-09-11T15:18:00.619Z,49.70
2018-09-11T15:28:04.911Z,54.10
2018-09-11T15:38:07.239Z,53.40
2018-09-11T15:48:08.573Z,53.40
2018-09-11T15:58:09.896Z,59.30
2018-09-11T16:08:12.209Z,59.80
2018-09-11T16:18:13.446Z,65.40
2018-09-11T16:28:15.512Z,67.60
2018-09-11T16:38:16.788Z,68.30
2018-09-11T16:48:18.583Z,70.20
2018-09-11T16:58:20.807Z,77.50
2018-09-11T17:08:22.843Z,84.80
2018-09-11T17:18:24.110Z,84.00
2018-09-11T17:28:25.370Z,90.30
2018-09-11T17:38:26.654Z,98.20
2018-09-11T17:48:28.037Z,99.90
2018-09-11T17:58:29.473Z,99.90
2018-09-11T18:08:31.592Z,99.90
2018-09-11T18:18:32.930Z,99.90
2018-09-11T18:28:34.234Z,99.90
2018-09-11T18:38:35.470Z,99.90
2018-09-11T18:48:36.737Z,99.90
2018-09-11T18:58:37.979Z,99.90
2018-09-11T19:08:39.243Z,99.90
2018-09-11T19:18:40.533Z,99.90
2018-09-11T19:28:42.590Z,99.90
2018-09-11T19:38:44.068Z,99.90
2018-09-11T19:48:45.344Z,99.90
2018-09-11T19:58:46.662Z,99.90
2018-09-11T20:08:47.853Z,99.90
2018-09-11T20:18:49.186Z,99.90
2018-09-11T20:28:50.406Z,99.90
2018-09-11T20:38:51.634Z,99.90
2018-09-11T20:48:52.866Z,99.90
2018-09-11T20:58:54.122Z,99.90
2018-09-11T21:08:55.387Z,99.90
2018-09-11T21:18:56.659Z,99.90
2018-09-11T21:28:58.004Z,99.90
2018-09-11T21:38:59.303Z,99.90
2018-09-11T21:49:00.598Z,99.90
2018-09-11T21:59:01.853Z,99.90
2018-09-11T22:09:03.866Z,99.90
2018-09-11T22:19:05.896Z,99.90
2018-09-11T22:29:07.139Z,99.90
2018-09-11T22:39:08.370Z,99.90
2018-09-11T22:49:10.410Z,99.90
2018-09-11T22:59:11.671Z,99.90
2018-09-11T23:09:13.699Z,99.90
2018-09-11T23:19:15.105Z,99.90
2018-09-11T23:29:16.359Z,99.90
2018-09-11T23:39:17.767Z,99.90
2018-09-11T23:49:19.014Z,99.90
2018-09-11T23:59:20.243Z,99.90
